createdAt,value
2019-05-23T00:00:04.816Z,99.78
2019-05-23T00:02:37.269Z,99.71
2019-05-23T00:05:09.745Z,99.79
2019-05-23T00:07:40.130Z,100.00
2019-05-23T00:10:13.502Z,100.00
2019-05-23T00:12:50.159Z,100.00
2019-05-23T00:15:27.657Z,100.00
2019-05-23T00:18:01.357Z,99.95
2019-05-23T00:20:33.194Z,99.80
2019-05-23T00:23:05.244Z,100.00
2019-05-23T00:25:36.950Z,100.00
2019-05-23T00:28:09.151Z,100.00
2019-05-23T00:30:40.965Z,100.00
2019-05-23T00:33:12.706Z,100.00
2019-05-23T00:35:42.823Z,100.00
2019-05-23T00:38:14.811Z,100.00
2019-05-23T00:40:46.729Z,100.00
2019-05-23T00:43:22.370Z,100.00
2019-05-23T00:45:52.511Z,100.00
2019-05-23T00:48:24.841Z,100.00
2019-05-23T00:50:56.239Z,100.00
2019-05-23T00:53:26.309Z,99.94
2019-05-23T00:55:56.662Z,99.76
2019-05-23T00:58:26.871Z,99.75
2019-05-23T01:00:57.869Z,99.48
2019-05-23T01:03:29.839Z,99.68
2019-05-23T01:06:01.343Z,99.84
2019-05-23T01:08:32.025Z,99.92
2019-05-23T01:11:05.168Z,99.74
2019-05-23T01:13:35.944Z,99.75
2019-05-23T01:16:07.159Z,99.42
2019-05-23T01:18:38.713Z,99.22
2019-05-23T01:21:27.105Z,98.84
2019-05-23T01:23:59.245Z,98.13
2019-05-23T01:26:29.850Z,98.14
2019-05-23T01:29:00.422Z,98.52
2019-05-23T01:31:38.131Z,98.84
2019-05-23T01:34:09.949Z,98.19
2019-05-23T01:36:42.359Z,98.63
2019-05-23T01:39:12.942Z,98.39
2019-05-23T01:41:43.864Z,98.48
2019-05-23T01:44:14.524Z,98.75
2019-05-23T01:46:45.922Z,99.42
2019-05-23T01:49:19.020Z,98.83
2019-05-23T01:51:50.024Z,98.77
2019-05-23T01:54:20.698Z,99.12
2019-05-23T01:56:51.797Z,99.09
2019-05-23T01:59:23.265Z,98.37
2019-05-23T02:01:53.777Z,98.50
2019-05-23T02:04:25.237Z,98.16
2019-05-23T02:06:56.852Z,98.11
2019-05-23T02:09:27.175Z,98.30
2019-05-23T02:11:57.283Z,98.20
2019-05-23T02:14:28.683Z,98.44
2019-05-23T02:17:00.001Z,98.44
2019-05-23T02:19:30.193Z,98.18
2019-05-23T02:22:01.622Z,98.18
2019-05-23T02:24:31.885Z,98.49
2019-05-23T02:27:02.182Z,97.95
2019-05-23T02:29:32.710Z,97.86
2019-05-23T02:32:06.235Z,97.76
2019-05-23T02:34:38.021Z,98.38
2019-05-23T02:37:16.924Z,98.18
2019-05-23T02:39:54.529Z,98.33
2019-05-23T02:42:26.771Z,98.25
2019-05-23T02:44:56.939Z,98.45
2019-05-23T02:47:29.533Z,98.14
2019-05-23T02:50:00.511Z,98.43
2019-05-23T02:52:42.690Z,98.92
2019-05-23T02:55:18.917Z,98.82
2019-05-23T02:57:49.518Z,99.25
2019-05-23T03:00:29.149Z,99.00
2019-05-23T03:03:01.544Z,99.02
2019-05-23T03:05:32.718Z,98.95
2019-05-23T03:08:05.965Z,99.12
2019-05-23T03:10:51.139Z,98.76
2019-05-23T03:13:25.437Z,99.06
2019-05-23T03:15:57.765Z,98.27
2019-05-23T03:18:34.629Z,98.35
2019-05-23T03:21:06.111Z,98.62
2019-05-23T03:23:36.210Z,97.91
2019-05-23T03:26:27.153Z,96.82
2019-05-23T03:28:57.446Z,96.94
2019-05-23T03:31:32.110Z,97.49
2019-05-23T03:34:01.802Z,96.41
2019-05-23T03:36:31.876Z,96.20
2019-05-23T03:39:03.546Z,95.44
2019-05-23T03:41:34.720Z,95.80
2019-05-23T03:44:05.234Z,95.23
2019-05-23T03:46:37.862Z,95.30
2019-05-23T03:49:09.165Z,95.07
2019-05-23T03:51:41.236Z,94.85
2019-05-23T03:54:11.828Z,94.77
2019-05-23T03:56:42.306Z,94.27
2019-05-23T03:59:13.991Z,93.43
2019-05-23T04:01:48.603Z,94.28
2019-05-23T04:04:18.249Z,94.15
2019-05-23T04:06:49.526Z,94.06
2019-05-23T04:09:19.616Z,94.00
2019-05-23T04:11:49.789Z,94.14
2019-05-23T04:14:20.295Z,93.59
2019-05-23T04:16:50.729Z,93.71
2019-05-23T04:19:21.523Z,92.90
2019-05-23T04:21:51.879Z,93.30
2019-05-23T04:24:22.016Z,93.15
2019-05-23T04:26:52.501Z,92.74
2019-05-23T04:29:23.203Z,92.73
2019-05-23T04:32:07.066Z,92.58
2019-05-23T04:34:25.800Z,91.49
2019-05-23T04:36:56.190Z,91.90
2019-05-23T04:39:27.393Z,91.78
2019-05-23T04:41:57.767Z,91.61
2019-05-23T04:44:28.365Z,91.70
2019-05-23T04:46:59.251Z,91.84
2019-05-23T04:49:29.458Z,91.04
2019-05-23T04:51:59.726Z,91.02
2019-05-23T04:54:30.001Z,91.39
2019-05-23T04:57:00.470Z,90.91
2019-05-23T04:59:30.791Z,91.18
2019-05-23T05:02:01.340Z,90.60
2019-05-23T05:04:31.990Z,90.80
2019-05-23T05:07:02.364Z,90.88
2019-05-23T05:09:33.388Z,90.40
2019-05-23T05:12:03.958Z,90.54
2019-05-23T05:14:34.365Z,91.18
2019-05-23T05:17:05.150Z,88.87
2019-05-23T05:19:35.540Z,89.54
2019-05-23T05:22:06.027Z,90.30
2019-05-23T05:24:39.955Z,90.14
2019-05-23T05:27:09.514Z,90.88
2019-05-23T05:29:39.623Z,89.78
2019-05-23T05:32:10.187Z,89.62
2019-05-23T05:34:40.285Z,89.88
2019-05-23T05:37:10.373Z,90.04
2019-05-23T05:39:40.767Z,89.54
2019-05-23T05:42:11.841Z,89.19
2019-05-23T05:44:42.542Z,89.10
2019-05-23T05:47:13.300Z,88.70
2019-05-23T05:49:43.769Z,89.22
2019-05-23T05:52:13.943Z,89.03
2019-05-23T05:54:44.033Z,89.45
2019-05-23T05:57:14.097Z,88.87
2019-05-23T05:59:44.299Z,89.14
2019-05-23T06:02:16.048Z,87.91
2019-05-23T06:04:46.643Z,87.72
2019-05-23T06:07:18.295Z,87.67
2019-05-23T06:09:49.966Z,88.08
2019-05-23T06:12:20.034Z,88.04
2019-05-23T06:14:50.156Z,88.45
2019-05-23T06:17:34.439Z,87.26
2019-05-23T06:20:20.081Z,87.14
2019-05-23T06:22:57.308Z,87.36
2019-05-23T06:32:09.256Z,86.16
2019-05-23T06:35:17.864Z,86.45
2019-05-23T06:41:25.718Z,86.20
2019-05-23T06:50:14.604Z,85.49
2019-05-23T06:56:33.176Z,86.14
2019-05-23T21:11:25.705Z,71.15
2019-05-23T21:13:55.975Z,70.55
2019-05-23T21:16:26.023Z,71.43
2019-05-23T21:18:56.203Z,72.07
2019-05-23T21:21:26.448Z,71.92
2019-05-23T21:23:57.255Z,71.58
2019-05-23T21:26:27.342Z,72.39
2019-05-23T21:28:57.528Z,72.16
2019-05-23T21:31:27.570Z,72.22
2019-05-23T21:33:57.756Z,72.08
2019-05-23T21:36:27.844Z,72.19
2019-05-23T21:38:57.926Z,72.16
2019-05-23T21:41:28.132Z,73.54
2019-05-23T21:43:58.877Z,73.82
2019-05-23T21:46:28.931Z,73.34
2019-05-23T21:48:59.019Z,73.44
2019-05-23T21:51:29.068Z,73.03
2019-05-23T21:53:59.362Z,74.29
2019-05-23T21:56:29.508Z,74.57
2019-05-23T21:58:59.594Z,75.10
2019-05-23T22:01:31.207Z,75.90
2019-05-23T22:04:19.362Z,75.95
2019-05-23T22:06:55.250Z,76.22
2019-05-23T22:09:22.921Z,76.92
2019-05-23T22:11:53.978Z,77.98
2019-05-23T22:14:24.067Z,78.01
2019-05-23T22:16:54.166Z,78.40
2019-05-23T22:19:24.356Z,78.99
2019-05-23T22:21:54.416Z,78.62
2019-05-23T22:24:24.499Z,78.69
2019-05-23T22:26:54.550Z,78.61
2019-05-23T22:29:25.079Z,78.90
2019-05-23T22:31:56.517Z,78.78
2019-05-23T22:34:31.256Z,79.11
2019-05-23T22:37:01.735Z,78.79
2019-05-23T22:39:31.859Z,78.97
2019-05-23T22:42:01.888Z,79.03
2019-05-23T22:44:31.991Z,78.94
2019-05-23T22:47:02.055Z,79.81
2019-05-23T22:49:32.136Z,79.71
2019-05-23T22:52:02.275Z,79.94
2019-05-23T22:54:32.361Z,79.74
2019-05-23T22:57:02.445Z,79.91
2019-05-23T22:59:32.811Z,79.79
2019-05-23T23:02:04.096Z,77.13
2019-05-23T23:04:34.176Z,79.24
2019-05-23T23:07:04.284Z,80.10
2019-05-23T23:09:34.365Z,78.91
2019-05-23T23:12:04.540Z,78.33
2019-05-23T23:14:34.729Z,78.50
2019-05-23T23:17:04.904Z,77.25
2019-05-23T23:19:35.020Z,77.55
2019-05-23T23:22:06.797Z,74.40
2019-05-23T23:24:36.976Z,74.81
2019-05-23T23:27:07.147Z,76.26
2019-05-23T23:29:37.527Z,76.83
2019-05-23T23:32:07.809Z,76.47
2019-05-23T23:34:37.923Z,76.29
2019-05-23T23:37:08.094Z,76.22
2019-05-23T23:39:38.203Z,75.99
2019-05-23T23:42:08.977Z,75.52
2019-05-23T23:44:38.246Z,75.79
2019-05-23T23:47:26.255Z,75.53
2019-05-23T23:50:14.476Z,75.91
2019-05-23T23:53:02.647Z,76.96
2019-05-23T23:55:50.468Z,77.15
2019-05-23T23:58:19.721Z,76.24
